createdAt,value
2019-01-20T00:02:20.918Z,-3.90
2019-01-20T00:04:47.748Z,-4.30
2019-01-20T00:07:14.913Z,-4.40
2019-01-20T00:09:42.057Z,-4.30
2019-01-20T00:12:08.963Z,-4.10
2019-01-20T00:14:35.961Z,-3.90
2019-01-20T00:17:03.002Z,-3.70
2019-01-20T00:19:30.049Z,-3.80
2019-01-20T00:21:56.990Z,-3.70
2019-01-20T00:24:24.128Z,-3.80
2019-01-20T00:26:50.953Z,-4.00
2019-01-20T00:29:17.858Z,-4.10
2019-01-20T00:31:44.916Z,-4.20
2019-01-20T00:34:12.072Z,-4.20
2019-01-20T00:36:39.102Z,-4.00
2019-01-20T00:39:07.560Z,-4.00
2019-01-20T00:41:34.473Z,-4.00
2019-01-20T00:44:01.842Z,-4.00
2019-01-20T00:46:28.996Z,-4.00
2019-01-20T00:48:55.796Z,-3.90
2019-01-20T00:51:23.160Z,-3.90
2019-01-20T00:53:50.074Z,-3.80
2019-01-20T00:56:17.080Z,-4.10
2019-01-20T00:58:44.066Z,-4.20
2019-01-20T01:01:11.671Z,-4.10
2019-01-20T01:03:38.734Z,-4.10
2019-01-20T01:06:05.836Z,-4.00
2019-01-20T01:08:32.754Z,-3.90
2019-01-20T01:10:59.632Z,-3.80
2019-01-20T01:13:26.640Z,-3.80
2019-01-20T01:15:53.447Z,-3.90
2019-01-20T01:18:20.900Z,-3.90
2019-01-20T01:20:47.736Z,-3.80
2019-01-20T01:23:14.971Z,-3.80
2019-01-20T01:25:41.913Z,-3.80
2019-01-20T01:28:09.173Z,-3.70
2019-01-20T01:30:36.198Z,-3.60
2019-01-20T01:33:03.854Z,-3.60
2019-01-20T01:35:30.640Z,-3.60
2019-01-20T01:37:57.672Z,-3.70
2019-01-20T01:40:26.409Z,-3.70
2019-01-20T01:42:53.410Z,-3.70
2019-01-20T01:45:20.445Z,-3.70
2019-01-20T01:47:47.800Z,-3.70
2019-01-20T01:50:15.605Z,-3.70
2019-01-20T01:52:42.600Z,-3.70
2019-01-20T01:55:11.709Z,-3.60
2019-01-20T01:57:39.226Z,-3.70
2019-01-20T02:00:15.025Z,-3.60
2019-01-20T02:02:42.117Z,-3.70
2019-01-20T02:05:09.164Z,-3.80
2019-01-20T02:07:36.730Z,-3.70
2019-01-20T02:10:06.150Z,-3.70
2019-01-20T02:12:33.223Z,-3.70
2019-01-20T02:15:00.245Z,-3.80
2019-01-20T02:17:27.469Z,-3.80
2019-01-20T02:19:54.372Z,-3.80
2019-01-20T02:22:23.990Z,-3.80
2019-01-20T02:24:51.257Z,-3.90
2019-01-20T02:27:18.154Z,-3.90
2019-01-20T02:29:45.208Z,-3.90
2019-01-20T02:32:12.102Z,-3.90
2019-01-20T02:34:39.793Z,-3.90
2019-01-20T02:37:06.582Z,-3.80
2019-01-20T02:39:33.386Z,-3.80
2019-01-20T02:42:00.714Z,-3.80
2019-01-20T02:44:27.610Z,-3.90
2019-01-20T02:46:54.678Z,-3.80
2019-01-20T02:49:21.469Z,-3.90
2019-01-20T02:51:48.385Z,-3.90
2019-01-20T02:54:15.187Z,-3.80
2019-01-20T02:56:42.347Z,-3.70
2019-01-20T02:59:09.588Z,-3.80
2019-01-20T03:01:36.613Z,-3.80
2019-01-20T03:04:04.106Z,-3.90
2019-01-20T03:06:30.918Z,-3.90
2019-01-20T03:08:57.844Z,-3.90
2019-01-20T03:11:24.644Z,-4.00
2019-01-20T03:13:51.698Z,-4.10
2019-01-20T03:16:18.609Z,-4.10
2019-01-20T03:18:46.181Z,-4.20
2019-01-20T03:21:13.344Z,-4.10
2019-01-20T03:23:40.160Z,-4.10
2019-01-20T03:26:07.305Z,-4.00
2019-01-20T03:28:34.581Z,-4.00
2019-01-20T03:31:01.732Z,-4.10
2019-01-20T03:33:28.559Z,-4.10
2019-01-20T03:35:55.942Z,-4.00
2019-01-20T03:38:22.993Z,-4.00
2019-01-20T03:40:50.177Z,-4.00
2019-01-20T03:43:17.479Z,-3.90
2019-01-20T03:45:44.481Z,-3.80
2019-01-20T03:48:11.310Z,-3.80
2019-01-20T03:50:38.390Z,-3.90
2019-01-20T03:53:05.449Z,-3.90
2019-01-20T03:55:32.344Z,-3.90
2019-01-20T03:57:59.357Z,-4.00
2019-01-20T04:00:26.349Z,-3.90
2019-01-20T04:02:58.907Z,-4.00
2019-01-20T04:05:26.161Z,-4.00
2019-01-20T04:07:53.398Z,-4.00
2019-01-20T04:10:20.704Z,-3.90
2019-01-20T04:12:47.874Z,-3.90
2019-01-20T04:15:15.691Z,-3.90
2019-01-20T04:17:42.900Z,-3.90
2019-01-20T04:20:10.268Z,-4.00
2019-01-20T04:22:37.337Z,-4.00
2019-01-20T04:25:06.856Z,-4.00
2019-01-20T04:27:34.110Z,-4.10
2019-01-20T04:30:01.318Z,-4.10
2019-01-20T04:32:28.799Z,-4.20
2019-01-20T04:34:55.601Z,-4.10
2019-01-20T04:37:22.404Z,-4.10
2019-01-20T04:39:49.210Z,-4.20
2019-01-20T04:42:16.111Z,-4.30
2019-01-20T04:44:43.185Z,-4.40
2019-01-20T04:47:10.081Z,-4.30
2019-01-20T04:49:36.894Z,-4.40
2019-01-20T04:52:03.893Z,-4.30
2019-01-20T04:54:30.807Z,-4.30
2019-01-20T04:56:57.601Z,-4.40
2019-01-20T04:59:24.671Z,-4.50
2019-01-20T05:01:51.581Z,-4.60
2019-01-20T05:04:18.486Z,-4.60
2019-01-20T05:06:45.625Z,-4.50
2019-01-20T05:09:12.690Z,-4.60
2019-01-20T05:11:39.493Z,-4.60
2019-01-20T05:14:06.488Z,-4.50
2019-01-20T05:16:33.390Z,-4.50
2019-01-20T05:19:00.195Z,-4.60
2019-01-20T05:21:27.264Z,-4.70
2019-01-20T05:23:54.293Z,-4.70
2019-01-20T05:26:21.385Z,-4.60
2019-01-20T05:28:48.428Z,-4.60
2019-01-20T05:31:15.348Z,-4.60
2019-01-20T05:33:42.490Z,-4.50
2019-01-20T05:36:09.912Z,-4.60
2019-01-20T05:38:36.714Z,-4.70
2019-01-20T05:41:03.727Z,-4.50
2019-01-20T05:43:30.878Z,-4.50
2019-01-20T05:45:57.956Z,-4.50
2019-01-20T05:48:24.758Z,-4.50
2019-01-20T05:50:51.932Z,-4.40
2019-01-20T05:53:18.980Z,-4.30
2019-01-20T05:55:45.944Z,-4.40
2019-01-20T05:58:12.750Z,-4.40
2019-01-20T06:00:39.898Z,-4.50
2019-01-20T06:03:06.768Z,-4.60
2019-01-20T06:05:33.566Z,-4.50
2019-01-20T06:08:00.631Z,-4.50
2019-01-20T06:10:27.777Z,-4.60
2019-01-20T06:12:54.702Z,-4.60
2019-01-20T06:15:22.598Z,-4.60
2019-01-20T06:17:49.770Z,-4.60
2019-01-20T06:20:17.421Z,-4.60
2019-01-20T06:22:44.698Z,-4.60
2019-01-20T06:25:11.701Z,-4.60
2019-01-20T06:27:38.891Z,-4.60
2019-01-20T06:30:15.410Z,-4.70
2019-01-20T06:32:42.316Z,-4.80
2019-01-20T06:35:09.368Z,-4.90
2019-01-20T06:37:36.629Z,-4.90
2019-01-20T06:40:04.258Z,-4.90
2019-01-20T06:42:31.085Z,-4.90
2019-01-20T06:44:57.905Z,-4.90
2019-01-20T06:47:24.978Z,-4.90
2019-01-20T06:49:52.046Z,-4.90
2019-01-20T06:52:19.098Z,-4.80
2019-01-20T06:54:46.010Z,-4.90
2019-01-20T06:57:13.092Z,-4.80
2019-01-20T06:59:39.911Z,-4.80
2019-01-20T07:02:06.814Z,-4.90
2019-01-20T07:04:33.969Z,-5.00
2019-01-20T07:07:00.969Z,-5.00
2019-01-20T07:09:27.882Z,-5.00
2019-01-20T07:11:54.780Z,-5.10
2019-01-20T07:14:21.601Z,-5.00
2019-01-20T07:16:48.886Z,-4.90
2019-01-20T07:19:15.762Z,-4.90
2019-01-20T07:21:42.667Z,-4.80
2019-01-20T07:24:09.488Z,-4.80
2019-01-20T07:26:36.828Z,-5.00
2019-01-20T07:29:04.117Z,-5.10
2019-01-20T07:31:31.182Z,-5.10
2019-01-20T07:33:58.350Z,-5.10
2019-01-20T07:36:25.148Z,-5.00
2019-01-20T07:38:52.197Z,-5.00
2019-01-20T07:41:18.993Z,-5.00
2019-01-20T07:43:46.058Z,-4.90
2019-01-20T07:46:12.858Z,-4.90
2019-01-20T07:48:39.665Z,-4.90
2019-01-20T07:51:06.563Z,-4.90
2019-01-20T07:53:33.634Z,-5.00
2019-01-20T07:56:00.434Z,-5.00
2019-01-20T07:58:27.456Z,-4.90
2019-01-20T08:00:54.274Z,-4.70
2019-01-20T08:03:21.245Z,-4.70
2019-01-20T08:05:48.165Z,-4.70
2019-01-20T08:08:15.329Z,-4.70
2019-01-20T08:10:42.426Z,-4.60
2019-01-20T08:13:09.337Z,-4.60
2019-01-20T08:15:36.366Z,-4.60
2019-01-20T08:18:03.762Z,-4.60
2019-01-20T08:20:30.724Z,-4.60
2019-01-20T08:22:57.682Z,-4.60
2019-01-20T08:25:25.022Z,-4.50
2019-01-20T08:27:52.089Z,-4.40
2019-01-20T08:30:21.073Z,-4.50
2019-01-20T08:32:48.380Z,-4.40
2019-01-20T08:35:15.345Z,-4.40
2019-01-20T08:37:42.337Z,-4.30
2019-01-20T08:40:12.535Z,-4.30
2019-01-20T08:42:40.158Z,-4.50
2019-01-20T08:45:14.894Z,-4.60
2019-01-20T08:47:51.810Z,-4.60
2019-01-20T08:50:18.991Z,-4.60
2019-01-20T08:52:45.892Z,-4.60
2019-01-20T08:55:13.549Z,-4.50
2019-01-20T08:57:40.371Z,-4.40
2019-01-20T09:00:13.593Z,-4.30
2019-01-20T09:02:40.408Z,-4.30
2019-01-20T09:05:07.488Z,-4.30
2019-01-20T09:07:34.498Z,-4.30
2019-01-20T09:10:01.406Z,-4.30
2019-01-20T09:12:28.509Z,-4.30
2019-01-20T09:14:55.613Z,-4.30
2019-01-20T09:17:22.523Z,-4.20
2019-01-20T09:19:49.573Z,-4.30
2019-01-20T09:22:16.765Z,-4.30
2019-01-20T09:24:43.670Z,-4.20
2019-01-20T09:27:10.490Z,-4.20
2019-01-20T09:29:37.666Z,-4.00
2019-01-20T09:32:04.690Z,-3.90
2019-01-20T09:34:31.637Z,-3.70
2019-01-20T09:36:58.612Z,-3.60
2019-01-20T09:39:25.438Z,-3.50
2019-01-20T09:41:52.739Z,-3.60
2019-01-20T09:44:20.059Z,-3.60
2019-01-20T09:46:46.954Z,-3.60
2019-01-20T09:49:14.050Z,-3.60
2019-01-20T09:51:40.937Z,-3.60
2019-01-20T09:54:08.262Z,-3.70
2019-01-20T09:56:35.821Z,-3.80
2019-01-20T09:59:02.998Z,-3.60
2019-01-20T10:01:30.283Z,-3.40
2019-01-20T10:03:57.601Z,-3.50
2019-01-20T10:06:24.521Z,-3.50
2019-01-20T10:08:51.586Z,-3.40
2019-01-20T10:11:18.998Z,-3.30
2019-01-20T10:13:46.055Z,-3.30
2019-01-20T10:16:13.059Z,-3.30
2019-01-20T10:18:41.297Z,-3.30
2019-01-20T10:21:08.633Z,-3.40
2019-01-20T10:23:35.666Z,-3.40
2019-01-20T10:26:02.560Z,-3.40
2019-01-20T10:28:30.258Z,-3.30
2019-01-20T10:30:57.174Z,-3.30
2019-01-20T10:33:24.105Z,-3.20
2019-01-20T10:36:06.981Z,-3.20
2019-01-20T10:38:37.183Z,-3.20
2019-01-20T10:41:03.264Z,-3.10
2019-01-20T10:43:30.165Z,-3.10
2019-01-20T10:45:57.321Z,-3.10
2019-01-20T10:48:24.653Z,-2.90
2019-01-20T10:50:52.062Z,-2.90
2019-01-20T10:53:19.096Z,-2.80
2019-01-20T10:55:46.383Z,-2.80
2019-01-20T10:58:13.429Z,-2.80
2019-01-20T11:00:40.770Z,-2.80
2019-01-20T11:03:08.022Z,-2.80
2019-01-20T11:05:35.285Z,-2.80
2019-01-20T11:08:02.435Z,-2.80
2019-01-20T11:10:29.441Z,-2.70
2019-01-20T11:12:56.350Z,-2.70
2019-01-20T11:15:23.481Z,-2.60
2019-01-20T11:17:50.464Z,-2.50
2019-01-20T11:20:17.482Z,-2.50
2019-01-20T11:22:44.661Z,-2.50
2019-01-20T11:25:14.536Z,-2.50
2019-01-20T11:27:41.721Z,-2.50
2019-01-20T11:30:09.902Z,-2.30
2019-01-20T11:32:42.321Z,-2.20
2019-01-20T11:35:08.493Z,-2.20
2019-01-20T11:37:35.810Z,-2.20
2019-01-20T11:40:04.170Z,-2.20
2019-01-20T11:42:31.142Z,-2.30
2019-01-20T11:44:58.366Z,-2.30
2019-01-20T11:47:25.538Z,-2.20
2019-01-20T11:49:52.945Z,-2.10
2019-01-20T11:52:20.006Z,-2.20
2019-01-20T11:54:47.165Z,-2.20
2019-01-20T11:57:15.182Z,-2.10
2019-01-20T11:59:42.371Z,-2.10
2019-01-20T12:02:09.380Z,-2.00
2019-01-20T12:04:36.457Z,-1.90
2019-01-20T12:07:04.094Z,-2.00
2019-01-20T12:09:31.638Z,-2.00
2019-01-20T12:11:59.420Z,-1.90
2019-01-20T12:14:26.739Z,-2.00
2019-01-20T12:16:55.191Z,-1.90
2019-01-20T12:19:23.289Z,-2.00
2019-01-20T12:21:50.978Z,-2.00
2019-01-20T12:24:19.463Z,-2.00
2019-01-20T12:26:47.945Z,-1.90
2019-01-20T12:29:14.998Z,-1.80
2019-01-20T12:31:42.197Z,-1.80
2019-01-20T12:34:09.789Z,-1.80
2019-01-20T12:36:37.109Z,-1.70
2019-01-20T12:39:07.880Z,-1.70
2019-01-20T12:41:35.297Z,-1.70
2019-01-20T12:44:02.507Z,-1.70
2019-01-20T12:46:29.921Z,-1.60
2019-01-20T12:48:57.358Z,-1.70
2019-01-20T12:51:28.652Z,-1.80
2019-01-20T12:53:54.686Z,-1.80
2019-01-20T12:56:21.847Z,-1.80
2019-01-20T12:58:49.109Z,-1.90
2019-01-20T13:01:16.722Z,-1.80
2019-01-20T13:03:44.450Z,-1.80
2019-01-20T13:06:11.621Z,-1.70
2019-01-20T13:08:39.217Z,-1.80
2019-01-20T13:11:06.781Z,-1.80
2019-01-20T13:13:33.957Z,-1.80
2019-01-20T13:16:02.177Z,-1.80
2019-01-20T13:18:29.769Z,-1.80
2019-01-20T13:20:57.418Z,-1.80
2019-01-20T13:23:25.270Z,-1.70
2019-01-20T13:25:52.360Z,-1.80
2019-01-20T13:28:19.812Z,-1.70
2019-01-20T13:30:47.092Z,-1.70
2019-01-20T13:33:14.529Z,-1.70
2019-01-20T13:35:42.079Z,-1.70
2019-01-20T13:38:17.362Z,-1.60
2019-01-20T13:40:50.721Z,-1.50
2019-01-20T13:43:18.480Z,-1.50
2019-01-20T13:45:45.934Z,-1.60
2019-01-20T13:48:13.458Z,-1.70
2019-01-20T13:50:40.638Z,-1.70
2019-01-20T13:53:07.864Z,-1.80
2019-01-20T13:55:35.293Z,-1.80
2019-01-20T13:58:03.014Z,-1.70
2019-01-20T14:00:30.754Z,-1.70
2019-01-20T14:02:58.483Z,-1.70
2019-01-20T14:05:25.488Z,-1.70
2019-01-20T14:07:53.515Z,-1.80
2019-01-20T14:10:21.181Z,-1.80
2019-01-20T14:12:48.974Z,-1.70
2019-01-20T14:15:16.523Z,-1.70
2019-01-20T14:17:44.076Z,-1.80
2019-01-20T14:20:19.821Z,-1.70
2019-01-20T14:22:47.581Z,-1.80
2019-01-20T14:25:16.983Z,-1.80
2019-01-20T14:27:44.770Z,-1.80
2019-01-20T14:30:17.261Z,-1.70
2019-01-20T14:32:45.081Z,-1.70
2019-01-20T14:35:12.638Z,-1.70
2019-01-20T14:37:40.066Z,-1.80
2019-01-20T14:40:08.347Z,-1.80
2019-01-20T14:42:36.029Z,-1.80
2019-01-20T14:45:04.948Z,-1.70
2019-01-20T14:47:32.497Z,-1.70
2019-01-20T14:49:59.990Z,-1.70
2019-01-20T14:52:27.308Z,-1.70
2019-01-20T14:54:54.216Z,-1.80
2019-01-20T14:57:21.953Z,-1.90
2019-01-20T14:59:49.886Z,-1.90
2019-01-20T15:02:16.768Z,-1.90
2019-01-20T15:04:44.131Z,-1.90
2019-01-20T15:07:11.597Z,-1.80
2019-01-20T15:09:39.138Z,-1.80
2019-01-20T15:12:07.573Z,-1.60
2019-01-20T15:14:35.258Z,-1.60
2019-01-20T15:17:03.205Z,-1.60
2019-01-20T15:19:30.359Z,-1.70
2019-01-20T15:21:58.188Z,-1.70
2019-01-20T15:24:31.053Z,-1.80
2019-01-20T15:26:55.312Z,-1.70
2019-01-20T15:29:22.390Z,-1.60
2019-01-20T15:31:49.585Z,-1.60
2019-01-20T15:34:17.198Z,-1.60
2019-01-20T15:36:45.163Z,-1.60
2019-01-20T15:39:12.420Z,-1.50
2019-01-20T15:41:40.114Z,-1.40
2019-01-20T15:44:07.381Z,-1.50
2019-01-20T15:46:35.021Z,-1.40
2019-01-20T15:49:02.664Z,-1.50
2019-01-20T15:51:29.978Z,-1.50
2019-01-20T15:53:57.140Z,-1.60
2019-01-20T15:56:24.337Z,-1.60
2019-01-20T15:58:51.731Z,-1.70
2019-01-20T16:01:19.442Z,-1.70
2019-01-20T16:03:47.402Z,-1.70
2019-01-20T16:06:15.195Z,-1.70
2019-01-20T16:08:42.345Z,-1.80
2019-01-20T16:11:09.970Z,-1.90
2019-01-20T16:13:37.794Z,-1.90
2019-01-20T16:16:06.066Z,-1.90
2019-01-20T16:18:34.026Z,-2.00
2019-01-20T16:21:01.643Z,-2.00
2019-01-20T16:23:29.113Z,-2.00
2019-01-20T16:25:56.281Z,-1.90
2019-01-20T16:28:24.166Z,-2.00
2019-01-20T16:30:51.870Z,-2.20
2019-01-20T16:33:24.821Z,-2.20
2019-01-20T16:35:49.082Z,-2.30
2019-01-20T16:38:16.938Z,-2.40
2019-01-20T16:40:44.590Z,-2.50
2019-01-20T16:43:12.266Z,-2.50
2019-01-20T16:45:42.452Z,-2.50
2019-01-20T16:48:10.533Z,-2.50
2019-01-20T16:50:38.352Z,-2.60
2019-01-20T16:53:05.462Z,-2.70
2019-01-20T16:55:32.813Z,-2.80
2019-01-20T16:58:00.390Z,-2.80
2019-01-20T17:00:29.280Z,-3.00
2019-01-20T17:02:56.686Z,-3.00
2019-01-20T17:05:26.755Z,-3.00
2019-01-20T17:07:53.672Z,-3.00
2019-01-20T17:10:25.654Z,-3.00
2019-01-20T17:12:53.467Z,-3.10
2019-01-20T17:15:23.126Z,-2.90
2019-01-20T17:17:50.626Z,-2.80
2019-01-20T17:20:18.172Z,-2.50
2019-01-20T17:22:45.760Z,-2.50
2019-01-20T17:25:13.353Z,-2.50
2019-01-20T17:27:41.318Z,-2.40
2019-01-20T17:30:12.501Z,-2.40
2019-01-20T17:32:40.094Z,-2.40
2019-01-20T17:35:08.621Z,-2.40
2019-01-20T17:37:36.383Z,-2.50
2019-01-20T17:40:05.469Z,-2.60
2019-01-20T17:42:33.628Z,-2.70
2019-01-20T17:45:01.683Z,-2.70
2019-01-20T17:47:29.631Z,-2.70
2019-01-20T17:49:57.490Z,-2.50
2019-01-20T17:52:25.040Z,-2.50
2019-01-20T17:54:52.394Z,-2.60
2019-01-20T17:57:19.965Z,-2.70
2019-01-20T17:59:47.603Z,-2.80
2019-01-20T18:02:15.265Z,-2.90
2019-01-20T18:04:42.770Z,-3.00
2019-01-20T18:07:10.321Z,-3.10
2019-01-20T18:09:38.180Z,-3.20
2019-01-20T18:12:05.772Z,-3.10
2019-01-20T18:14:33.413Z,-3.10
2019-01-20T18:17:00.837Z,-3.10
2019-01-20T18:19:28.572Z,-3.10
2019-01-20T18:21:59.061Z,-3.10
2019-01-20T18:24:26.610Z,-3.10
2019-01-20T18:26:54.157Z,-3.00
2019-01-20T18:29:22.422Z,-3.10
2019-01-20T18:31:49.782Z,-3.20
2019-01-20T18:34:17.173Z,-3.20
2019-01-20T18:36:45.025Z,-3.30
2019-01-20T18:39:12.644Z,-3.40
2019-01-20T18:41:40.238Z,-3.40
2019-01-20T18:44:08.114Z,-3.40
2019-01-20T18:46:35.317Z,-3.50
2019-01-20T18:49:03.464Z,-3.40
2019-01-20T18:51:31.314Z,-3.50
2019-01-20T18:53:58.581Z,-3.50
2019-01-20T18:56:25.843Z,-3.50
2019-01-20T18:58:53.248Z,-3.50
2019-01-20T19:01:20.849Z,-3.60
2019-01-20T19:03:48.270Z,-3.50
2019-01-20T19:06:15.484Z,-3.50
2019-01-20T19:08:43.273Z,-3.50
2019-01-20T19:11:10.604Z,-3.50
2019-01-20T19:13:38.346Z,-3.70
2019-01-20T19:16:09.050Z,-3.70
2019-01-20T19:18:35.915Z,-3.80
2019-01-20T19:21:03.964Z,-3.90
2019-01-20T19:23:31.832Z,-3.80
2019-01-20T19:25:59.867Z,-3.90
2019-01-20T19:28:27.401Z,-3.90
2019-01-20T19:30:55.573Z,-4.00
2019-01-20T19:33:22.930Z,-4.00
2019-01-20T19:35:50.717Z,-3.90
2019-01-20T19:38:18.224Z,-4.00
2019-01-20T19:40:45.537Z,-4.00
2019-01-20T19:43:13.370Z,-4.00
2019-01-20T19:45:40.738Z,-3.90
2019-01-20T19:48:13.000Z,-3.90
2019-01-20T19:50:37.522Z,-4.00
2019-01-20T19:53:04.965Z,-4.00
2019-01-20T19:55:32.997Z,-4.10
2019-01-20T19:58:00.684Z,-4.20
2019-01-20T20:00:28.890Z,-4.20
2019-01-20T20:02:56.580Z,-4.20
2019-01-20T20:05:24.283Z,-4.20
2019-01-20T20:07:52.166Z,-4.20
2019-01-20T20:10:21.605Z,-4.30
2019-01-20T20:12:49.717Z,-4.30
2019-01-20T20:15:18.945Z,-4.40
2019-01-20T20:17:46.118Z,-4.40
2019-01-20T20:20:14.876Z,-4.40
2019-01-20T20:22:42.938Z,-4.30
2019-01-20T20:25:10.777Z,-4.30
2019-01-20T20:27:38.129Z,-4.40
2019-01-20T20:30:11.544Z,-4.20
2019-01-20T20:32:38.837Z,-4.20
2019-01-20T20:35:07.263Z,-4.20
2019-01-20T20:37:34.485Z,-4.20
2019-01-20T20:40:02.214Z,-4.10
2019-01-20T20:42:30.172Z,-4.00
2019-01-20T20:44:57.941Z,-4.10
2019-01-20T20:47:25.103Z,-4.20
2019-01-20T20:49:52.402Z,-4.20
2019-01-20T20:52:19.742Z,-4.20
2019-01-20T20:54:47.218Z,-4.30
2019-01-20T20:57:15.118Z,-4.40
2019-01-20T20:59:43.177Z,-4.40
2019-01-20T21:02:10.604Z,-4.40
2019-01-20T21:04:38.193Z,-4.50
2019-01-20T21:07:05.766Z,-4.60
2019-01-20T21:09:33.600Z,-4.40
2019-01-20T21:12:01.104Z,-4.40
2019-01-20T21:14:28.531Z,-4.40
2019-01-20T21:16:56.046Z,-4.40
2019-01-20T21:19:23.440Z,-4.30
2019-01-20T21:21:51.075Z,-4.30
2019-01-20T21:24:18.655Z,-4.20
2019-01-20T21:26:46.476Z,-4.20
2019-01-20T21:29:14.065Z,-4.20
2019-01-20T21:31:41.860Z,-4.20
2019-01-20T21:34:09.646Z,-4.20
2019-01-20T21:36:37.117Z,-4.10
2019-01-20T21:39:06.710Z,-4.20
2019-01-20T21:41:34.682Z,-4.10
2019-01-20T21:44:02.316Z,-4.10
2019-01-20T21:46:29.828Z,-4.00
2019-01-20T21:48:57.137Z,-4.00
2019-01-20T21:51:24.663Z,-4.00
2019-01-20T21:53:51.964Z,-4.00
2019-01-20T21:56:19.976Z,-3.90
2019-01-20T21:58:47.794Z,-3.90
2019-01-20T22:01:15.402Z,-3.80
2019-01-20T22:03:43.413Z,-3.70
2019-01-20T22:06:10.624Z,-3.70
2019-01-20T22:08:38.228Z,-3.60
2019-01-20T22:11:06.093Z,-3.50
2019-01-20T22:13:33.553Z,-3.60
2019-01-20T22:16:01.327Z,-3.60
2019-01-20T22:18:29.058Z,-3.50
2019-01-20T22:20:56.264Z,-3.40
2019-01-20T22:23:24.142Z,-3.40
2019-01-20T22:25:51.570Z,-3.30
2019-01-20T22:28:19.026Z,-3.10
2019-01-20T22:30:46.436Z,-2.90
2019-01-20T22:33:14.009Z,-3.10
2019-01-20T22:35:41.452Z,-3.20
2019-01-20T22:38:08.657Z,-3.20
2019-01-20T22:40:36.172Z,-3.20
2019-01-20T22:43:03.809Z,-3.30
2019-01-20T22:45:31.222Z,-3.20
2019-01-20T22:47:59.189Z,-3.10
2019-01-20T22:50:26.887Z,-3.20
2019-01-20T22:52:54.475Z,-3.10
2019-01-20T22:55:22.398Z,-3.10
2019-01-20T22:57:49.669Z,-3.10
2019-01-20T23:00:28.694Z,-3.10
2019-01-20T23:02:56.049Z,-3.10
2019-01-20T23:05:23.452Z,-3.20
2019-01-20T23:07:51.113Z,-3.20
2019-01-20T23:10:18.713Z,-3.10
2019-01-20T23:12:46.129Z,-3.10
2019-01-20T23:15:13.487Z,-3.20
2019-01-20T23:17:40.985Z,-3.10
2019-01-20T23:20:10.112Z,-3.00
2019-01-20T23:22:37.726Z,-2.90
2019-01-20T23:25:05.372Z,-2.90
2019-01-20T23:27:32.967Z,-2.90
2019-01-20T23:30:00.370Z,-2.80
2019-01-20T23:32:27.981Z,-2.90
2019-01-20T23:34:55.057Z,-2.90
2019-01-20T23:37:22.656Z,-2.90
2019-01-20T23:39:50.233Z,-2.90
2019-01-20T23:42:17.970Z,-2.90
2019-01-20T23:44:45.853Z,-2.90
2019-01-20T23:47:15.263Z,-2.80
2019-01-20T23:49:42.997Z,-2.80
2019-01-20T23:52:10.674Z,-2.90
2019-01-20T23:54:38.069Z,-3.00
2019-01-20T23:57:05.329Z,-3.00
2019-01-20T23:59:32.392Z,-3.00
